createdAt,value
2024-02-29T00:02:20.520Z,91.40
2024-02-29T00:04:47.298Z,91.20
2024-02-29T00:07:15.512Z,91.20
2024-02-29T00:09:42.315Z,91.20
2024-02-29T00:12:09.156Z,91.20
2024-02-29T00:14:38.549Z,91.10
2024-02-29T00:17:05.318Z,91.00
2024-02-29T00:19:32.075Z,91.10
2024-02-29T00:21:58.872Z,91.30
2024-02-29T00:24:26.982Z,91.50
2024-02-29T00:26:53.754Z,91.40
2024-02-29T00:29:20.645Z,91.20
2024-02-29T00:31:47.521Z,91.20
2024-02-29T00:34:14.587Z,91.70
2024-02-29T00:36:41.517Z,91.50
2024-02-29T00:39:14.351Z,91.80
2024-02-29T00:41:43.317Z,92.00
2024-02-29T00:44:10.596Z,92.00
2024-02-29T00:46:38.321Z,91.90
2024-02-29T00:49:05.722Z,92.00
2024-02-29T00:51:32.562Z,92.00
2024-02-29T00:53:59.730Z,92.10
2024-02-29T00:56:26.540Z,91.80
2024-02-29T00:58:54.673Z,91.70
2024-02-29T01:01:21.718Z,91.50
2024-02-29T01:03:48.619Z,91.30
2024-02-29T01:06:15.502Z,91.20
2024-02-29T01:08:42.278Z,91.40
2024-02-29T01:11:09.137Z,91.50
2024-02-29T01:13:35.922Z,91.30
2024-02-29T01:16:04.567Z,91.40
2024-02-29T01:18:31.431Z,91.40
2024-02-29T01:20:58.320Z,91.30
2024-02-29T01:23:25.069Z,91.30
2024-02-29T01:25:51.821Z,91.20
2024-02-29T01:28:18.676Z,91.20
2024-02-29T01:30:45.503Z,91.00
2024-02-29T01:33:13.732Z,91.20
2024-02-29T01:35:40.495Z,91.00
2024-02-29T01:38:07.285Z,91.20
2024-02-29T01:40:34.035Z,91.30
2024-02-29T01:43:00.881Z,91.30
2024-02-29T01:45:27.645Z,91.50
2024-02-29T01:47:54.501Z,91.40
2024-02-29T01:50:25.017Z,91.50
2024-02-29T01:52:52.025Z,91.40
2024-02-29T01:55:19.046Z,91.40
2024-02-29T01:57:46.061Z,91.70
2024-02-29T02:00:13.839Z,91.40
2024-02-29T02:02:40.681Z,91.20
2024-02-29T02:05:08.502Z,91.30
2024-02-29T02:07:37.385Z,91.40
2024-02-29T02:10:04.666Z,91.30
2024-02-29T02:12:31.532Z,91.50
2024-02-29T02:14:58.389Z,91.40
2024-02-29T02:17:25.181Z,91.50
2024-02-29T02:19:52.722Z,91.70
2024-02-29T02:22:20.781Z,91.30
2024-02-29T02:24:47.577Z,91.50
2024-02-29T02:27:14.320Z,91.80
2024-02-29T02:29:41.106Z,92.20
2024-02-29T02:32:07.923Z,92.00
2024-02-29T02:34:34.693Z,91.80
2024-02-29T02:37:01.520Z,92.00
2024-02-29T02:39:29.688Z,92.50
2024-02-29T02:41:56.492Z,93.00
2024-02-29T02:44:23.246Z,93.30
2024-02-29T02:46:50.003Z,93.10
2024-02-29T02:49:16.797Z,92.90
2024-02-29T02:51:43.612Z,92.70
2024-02-29T02:54:10.394Z,92.50
2024-02-29T02:56:38.508Z,92.30
2024-02-29T02:59:05.275Z,92.40
2024-02-29T03:01:32.056Z,92.40
2024-02-29T03:03:58.870Z,92.20
2024-02-29T03:06:25.647Z,92.10
2024-02-29T03:08:52.410Z,92.30
2024-02-29T03:11:19.204Z,92.70
2024-02-29T03:13:47.346Z,92.60
2024-02-29T03:16:21.664Z,92.20
2024-02-29T03:18:48.461Z,92.60
2024-02-29T03:21:15.498Z,93.20
2024-02-29T03:23:42.316Z,92.90
2024-02-29T03:26:09.177Z,92.60
2024-02-29T03:28:36.044Z,92.40
2024-02-29T03:31:04.572Z,92.80
2024-02-29T03:33:31.431Z,92.30
2024-02-29T03:35:58.324Z,92.40
2024-02-29T03:38:25.127Z,92.40
2024-02-29T03:40:51.929Z,92.60
2024-02-29T03:43:18.726Z,92.40
2024-02-29T03:45:45.558Z,92.70
2024-02-29T03:48:13.734Z,93.30
2024-02-29T03:50:40.645Z,92.90
2024-02-29T03:53:07.412Z,92.60
2024-02-29T03:55:34.174Z,92.80
2024-02-29T03:58:00.942Z,93.00
2024-02-29T04:00:27.736Z,93.00
2024-02-29T04:02:54.519Z,92.50
2024-02-29T04:05:22.698Z,93.40
2024-02-29T04:07:49.481Z,93.30
2024-02-29T04:10:16.498Z,93.30
2024-02-29T04:12:43.440Z,93.20
2024-02-29T04:15:10.556Z,92.90
2024-02-29T04:17:37.373Z,93.20
2024-02-29T04:20:04.909Z,94.00
2024-02-29T04:22:33.042Z,93.60
2024-02-29T04:24:59.897Z,94.10
2024-02-29T04:27:26.783Z,94.80
2024-02-29T04:29:53.604Z,94.00
2024-02-29T04:32:20.356Z,94.50
2024-02-29T04:34:48.080Z,94.80
2024-02-29T04:37:14.873Z,95.00
2024-02-29T04:39:43.089Z,94.10
2024-02-29T04:42:09.890Z,93.80
2024-02-29T04:44:36.697Z,94.70
2024-02-29T04:47:03.685Z,96.00
2024-02-29T04:49:30.477Z,96.00
2024-02-29T04:51:57.284Z,95.50
2024-02-29T04:54:24.094Z,96.50
2024-02-29T04:56:52.209Z,96.10
2024-02-29T04:59:18.976Z,96.00
2024-02-29T05:01:45.852Z,95.30
2024-02-29T05:04:12.749Z,95.30
2024-02-29T05:06:39.659Z,96.00
2024-02-29T05:09:06.664Z,95.80
2024-02-29T05:11:35.056Z,95.10
2024-02-29T05:14:04.664Z,94.70
2024-02-29T05:16:31.709Z,94.80
2024-02-29T05:18:58.566Z,95.50
2024-02-29T05:21:25.501Z,96.10
2024-02-29T05:23:52.525Z,95.80
2024-02-29T05:26:19.884Z,95.50
2024-02-29T05:28:46.772Z,95.20
2024-02-29T05:31:15.197Z,96.10
2024-02-29T05:33:42.402Z,96.20
2024-02-29T05:36:09.425Z,96.40
2024-02-29T05:38:36.494Z,96.00
2024-02-29T05:41:04.657Z,96.80
2024-02-29T05:43:34.699Z,96.60
2024-02-29T05:46:02.588Z,96.20
2024-02-29T05:48:30.684Z,95.70
2024-02-29T05:50:57.417Z,96.00
2024-02-29T05:53:24.317Z,96.20
2024-02-29T05:55:51.103Z,96.90
2024-02-29T05:58:17.857Z,97.60
2024-02-29T06:00:44.819Z,97.10
2024-02-29T06:03:11.613Z,97.10
2024-02-29T06:05:39.725Z,97.00
2024-02-29T06:08:06.535Z,97.90
2024-02-29T06:10:33.316Z,98.30
2024-02-29T06:13:00.098Z,97.90
2024-02-29T06:15:26.899Z,97.30
2024-02-29T06:17:53.826Z,98.50
2024-02-29T06:20:20.601Z,97.70
2024-02-29T06:22:48.937Z,97.10
2024-02-29T06:25:15.958Z,96.60
2024-02-29T06:27:42.796Z,97.70
2024-02-29T06:30:10.632Z,97.30
2024-02-29T06:32:37.537Z,98.00
2024-02-29T06:35:04.936Z,98.60
2024-02-29T06:37:31.706Z,98.30
2024-02-29T06:40:00.024Z,98.60
2024-02-29T06:42:26.960Z,98.90
2024-02-29T06:44:53.953Z,99.10
2024-02-29T06:47:20.750Z,99.10
2024-02-29T06:49:47.491Z,98.30
2024-02-29T06:52:14.339Z,99.40
2024-02-29T06:54:41.195Z,98.70
2024-02-29T06:57:09.291Z,99.20
2024-02-29T06:59:36.012Z,99.70
2024-02-29T07:02:02.874Z,99.90
2024-02-29T07:04:29.649Z,99.90
2024-02-29T07:06:56.562Z,99.90
2024-02-29T07:09:23.412Z,99.50
2024-02-29T07:11:50.205Z,99.90
2024-02-29T07:14:18.413Z,99.70
2024-02-29T07:16:45.187Z,99.90
2024-02-29T07:19:11.988Z,99.20
2024-02-29T07:21:38.895Z,99.60
2024-02-29T07:24:05.979Z,99.90
2024-02-29T07:26:32.743Z,99.90
2024-02-29T07:28:59.489Z,99.90
2024-02-29T07:31:27.608Z,99.90
2024-02-29T07:33:54.441Z,99.90
2024-02-29T07:36:21.239Z,99.60
2024-02-29T07:38:47.984Z,99.90
2024-02-29T07:41:14.843Z,99.90
2024-02-29T07:43:41.615Z,97.50
2024-02-29T07:46:08.453Z,99.90
2024-02-29T07:48:36.692Z,99.00
2024-02-29T07:51:03.619Z,99.90
2024-02-29T07:53:30.431Z,97.30
2024-02-29T07:55:57.284Z,98.20
2024-02-29T07:58:24.195Z,99.90
2024-02-29T08:00:51.040Z,99.90
2024-02-29T08:03:17.885Z,99.90
2024-02-29T08:05:46.078Z,98.90
2024-02-29T08:08:12.862Z,97.70
2024-02-29T08:10:39.649Z,97.90
2024-02-29T08:13:06.472Z,97.90
2024-02-29T08:15:33.305Z,97.00
2024-02-29T08:18:00.110Z,96.60
2024-02-29T08:20:27.112Z,95.80
2024-02-29T08:22:55.664Z,96.00
2024-02-29T08:25:22.644Z,96.00
2024-02-29T08:27:49.475Z,95.40
2024-02-29T08:30:16.598Z,95.70
2024-02-29T08:32:43.413Z,95.20
2024-02-29T08:35:11.114Z,95.40
2024-02-29T08:37:37.900Z,95.10
2024-02-29T08:40:07.769Z,94.80
2024-02-29T08:42:35.011Z,94.80
2024-02-29T08:45:01.918Z,94.70
2024-02-29T08:47:28.725Z,94.60
2024-02-29T08:49:55.521Z,94.50
2024-02-29T08:52:22.400Z,94.90
2024-02-29T08:54:49.221Z,94.70
2024-02-29T08:57:17.382Z,94.90
2024-02-29T08:59:44.142Z,94.80
2024-02-29T09:02:10.970Z,94.80
2024-02-29T09:04:37.834Z,94.50
2024-02-29T09:07:04.939Z,94.50
2024-02-29T09:09:31.769Z,94.80
2024-02-29T09:11:58.581Z,94.40
2024-02-29T09:14:26.653Z,94.40
2024-02-29T09:16:53.437Z,94.50
2024-02-29T09:19:20.253Z,94.40
2024-02-29T09:21:47.104Z,94.50
2024-02-29T09:24:16.066Z,94.40
2024-02-29T09:26:43.186Z,94.40
2024-02-29T09:29:10.024Z,94.40
2024-02-29T09:31:38.485Z,94.30
2024-02-29T09:34:05.338Z,94.50
2024-02-29T09:36:32.194Z,94.40
2024-02-29T09:38:58.972Z,94.40
2024-02-29T09:43:59.350Z,94.50
2024-02-29T09:46:26.176Z,94.50
2024-02-29T09:48:54.400Z,94.60
2024-02-29T09:51:21.995Z,94.50
2024-02-29T09:53:50.449Z,94.50
2024-02-29T09:56:20.282Z,94.60
2024-02-29T09:58:47.359Z,94.60
2024-02-29T10:01:14.466Z,94.70
2024-02-29T10:03:43.135Z,94.70
2024-02-29T10:06:12.273Z,94.70
2024-02-29T10:08:39.113Z,95.10
2024-02-29T10:11:06.782Z,94.80
2024-02-29T10:13:37.431Z,94.80
2024-02-29T10:16:04.863Z,96.00
2024-02-29T10:18:33.086Z,95.60
2024-02-29T10:20:59.883Z,95.80
2024-02-29T10:23:30.083Z,96.00
2024-02-29T10:25:56.973Z,96.00
2024-02-29T10:28:23.787Z,96.00
2024-02-29T10:30:51.100Z,96.00
2024-02-29T10:33:17.892Z,96.40
2024-02-29T10:35:44.782Z,96.30
2024-02-29T10:38:11.533Z,96.40
2024-02-29T10:40:39.706Z,96.30
2024-02-29T10:43:10.092Z,96.60
2024-02-29T10:45:42.503Z,96.40
2024-02-29T10:48:16.647Z,96.70
2024-02-29T10:50:53.117Z,96.80
2024-02-29T10:53:37.317Z,96.90
2024-02-29T10:56:11.921Z,97.90
2024-02-29T10:58:41.716Z,97.60
2024-02-29T11:01:08.761Z,97.40
2024-02-29T11:03:35.742Z,97.60
2024-02-29T11:06:03.288Z,97.70
2024-02-29T11:08:31.469Z,97.80
2024-02-29T11:10:58.301Z,97.90
2024-02-29T11:13:27.798Z,98.30
2024-02-29T11:15:56.629Z,98.30
2024-02-29T11:18:24.240Z,98.60
2024-02-29T11:21:02.021Z,98.50
2024-02-29T11:23:30.450Z,98.70
2024-02-29T11:25:57.239Z,98.80
2024-02-29T11:28:33.431Z,99.20
2024-02-29T11:31:12.408Z,99.30
2024-02-29T11:33:39.310Z,99.60
2024-02-29T11:36:06.396Z,99.50
2024-02-29T11:38:39.945Z,99.70
2024-02-29T11:41:20.961Z,99.70
2024-02-29T11:43:49.068Z,99.90
2024-02-29T11:46:15.855Z,99.90
2024-02-29T11:48:42.810Z,99.80
2024-02-29T11:51:09.739Z,99.90
2024-02-29T11:53:38.034Z,99.90
2024-02-29T11:56:14.031Z,99.90
2024-02-29T11:58:42.646Z,99.90
2024-02-29T12:01:10.885Z,99.90
2024-02-29T12:03:37.738Z,99.90
2024-02-29T12:06:05.657Z,99.90
2024-02-29T12:08:33.045Z,99.90
2024-02-29T12:11:00.898Z,99.90
2024-02-29T12:13:29.178Z,99.90
2024-02-29T12:15:56.851Z,99.90
2024-02-29T12:18:25.195Z,99.90
2024-02-29T12:20:52.137Z,99.90
2024-02-29T12:23:20.347Z,99.90
2024-02-29T12:25:47.477Z,99.90
2024-02-29T12:28:14.948Z,99.90
2024-02-29T12:30:42.530Z,99.90
2024-02-29T12:33:09.730Z,99.90
2024-02-29T12:35:37.945Z,99.90
2024-02-29T12:38:04.759Z,99.90
2024-02-29T12:40:33.934Z,99.90
2024-02-29T12:43:00.782Z,99.90
2024-02-29T12:45:28.436Z,99.90
2024-02-29T12:47:55.257Z,99.90
2024-02-29T12:50:22.158Z,99.90
2024-02-29T12:52:50.421Z,99.90
2024-02-29T12:55:17.249Z,99.90
2024-02-29T12:57:44.218Z,99.90
2024-02-29T13:00:19.179Z,99.90
2024-02-29T13:02:45.946Z,99.90
2024-02-29T13:05:12.733Z,99.90
2024-02-29T13:07:39.879Z,99.90
2024-02-29T13:10:08.610Z,99.90
2024-02-29T13:12:36.354Z,99.90
2024-02-29T13:15:03.598Z,99.90
2024-02-29T13:17:30.606Z,99.90
2024-02-29T13:19:57.397Z,99.90
2024-02-29T13:22:24.162Z,99.90
2024-02-29T13:24:50.949Z,99.90
2024-02-29T13:27:19.338Z,99.90
2024-02-29T13:29:46.094Z,99.90
2024-02-29T13:32:12.843Z,99.90
2024-02-29T13:34:39.634Z,99.90
2024-02-29T13:37:06.422Z,99.90
2024-02-29T13:39:33.231Z,99.90
2024-02-29T13:42:00.002Z,99.90
2024-02-29T13:44:28.114Z,99.90
2024-02-29T13:46:54.909Z,99.90
2024-02-29T13:49:22.995Z,99.90
2024-02-29T13:51:50.163Z,99.90
2024-02-29T13:54:16.964Z,99.90
2024-02-29T13:56:44.056Z,99.90
2024-02-29T13:59:10.953Z,99.90
2024-02-29T14:01:39.129Z,99.90
2024-02-29T14:04:05.940Z,99.90
2024-02-29T14:06:32.776Z,99.90
2024-02-29T14:08:59.699Z,99.90
2024-02-29T14:11:26.503Z,99.90
2024-02-29T14:13:53.274Z,99.90
2024-02-29T14:16:20.213Z,99.90
2024-02-29T14:18:49.458Z,99.90
2024-02-29T14:21:16.391Z,99.90
2024-02-29T14:23:43.256Z,99.90
2024-02-29T14:26:10.027Z,99.90
2024-02-29T14:28:36.821Z,99.90
2024-02-29T14:31:03.762Z,99.90
2024-02-29T14:33:30.618Z,99.90
2024-02-29T14:35:58.696Z,99.90
2024-02-29T14:38:25.675Z,99.90
2024-02-29T14:40:52.440Z,99.90
2024-02-29T14:43:19.190Z,99.90
2024-02-29T14:45:46.069Z,99.90
2024-02-29T14:48:13.011Z,99.90
2024-02-29T14:50:39.812Z,99.90
2024-02-29T14:53:07.937Z,99.90
2024-02-29T14:55:34.879Z,99.90
2024-02-29T14:58:01.880Z,99.90
2024-02-29T15:00:28.727Z,99.90
2024-02-29T15:02:55.535Z,99.90
2024-02-29T15:05:22.334Z,99.90
2024-02-29T15:07:49.382Z,99.90
2024-02-29T15:10:17.621Z,99.90
2024-02-29T15:12:44.451Z,99.90
2024-02-29T15:15:11.578Z,99.90
2024-02-29T15:17:38.650Z,99.90
2024-02-29T15:20:06.502Z,99.90
2024-02-29T15:22:33.316Z,99.90
2024-02-29T15:25:00.117Z,99.90
2024-02-29T15:27:28.272Z,99.90
2024-02-29T15:29:55.104Z,99.90
2024-02-29T15:32:21.877Z,99.90
2024-02-29T15:34:48.650Z,99.90
2024-02-29T15:37:15.515Z,99.90
2024-02-29T15:39:42.370Z,99.90
2024-02-29T15:42:09.177Z,99.90
2024-02-29T15:44:37.256Z,99.90
2024-02-29T15:47:04.361Z,99.90
2024-02-29T15:49:31.228Z,99.90
2024-02-29T15:51:58.063Z,99.90
2024-02-29T15:54:24.886Z,99.90
2024-02-29T15:56:51.712Z,99.90
2024-02-29T15:59:18.566Z,99.90
2024-02-29T16:01:46.892Z,99.90
2024-02-29T16:04:13.744Z,99.90
2024-02-29T16:06:40.621Z,99.90
2024-02-29T16:09:07.395Z,99.90
2024-02-29T16:11:34.200Z,99.90
2024-02-29T16:14:01.012Z,99.90
2024-02-29T16:16:27.809Z,99.90
2024-02-29T16:18:56.025Z,99.90
2024-02-29T16:21:22.794Z,99.90
2024-02-29T16:23:49.563Z,99.90
2024-02-29T16:26:16.363Z,99.90
2024-02-29T16:28:43.278Z,99.90
2024-02-29T16:31:10.455Z,99.90
2024-02-29T16:33:37.291Z,99.90
2024-02-29T16:36:06.915Z,99.90
2024-02-29T16:38:33.737Z,99.90
2024-02-29T16:41:00.500Z,99.90
2024-02-29T16:43:27.361Z,99.90
2024-02-29T16:45:54.346Z,99.90
2024-02-29T16:48:21.207Z,99.90
2024-02-29T16:50:47.978Z,99.90
2024-02-29T16:53:16.125Z,99.90
2024-02-29T16:55:42.942Z,99.90
2024-02-29T16:58:09.889Z,99.90
2024-02-29T17:00:36.681Z,99.90
2024-02-29T17:03:04.179Z,99.90
2024-02-29T17:05:31.733Z,99.90
2024-02-29T17:07:58.507Z,99.90
2024-02-29T17:10:27.754Z,99.90
2024-02-29T17:12:54.601Z,99.90
2024-02-29T17:15:21.396Z,99.90
2024-02-29T17:17:48.193Z,99.90
2024-02-29T17:20:15.147Z,99.90
2024-02-29T17:22:42.172Z,99.90
2024-02-29T17:25:09.989Z,99.90
2024-02-29T17:27:38.390Z,99.90
2024-02-29T17:30:06.294Z,99.90
2024-02-29T17:32:33.170Z,99.90
2024-02-29T17:34:59.968Z,99.90
2024-02-29T17:37:29.303Z,99.90
2024-02-29T17:39:57.451Z,99.90
2024-02-29T17:42:24.299Z,99.90
2024-02-29T17:44:52.415Z,99.90
2024-02-29T17:47:19.264Z,99.90
2024-02-29T17:49:46.049Z,99.90
2024-02-29T17:52:12.899Z,99.90
2024-02-29T17:54:39.774Z,99.90
2024-02-29T17:57:07.054Z,99.90
2024-02-29T17:59:33.878Z,99.90
2024-02-29T18:02:02.395Z,99.90
2024-02-29T18:04:29.430Z,99.90
2024-02-29T18:06:56.298Z,99.90
2024-02-29T18:09:23.090Z,99.90
2024-02-29T18:11:49.884Z,99.90
2024-02-29T18:14:16.678Z,99.90
2024-02-29T18:16:43.645Z,99.90
2024-02-29T18:19:11.903Z,99.90
2024-02-29T18:21:42.078Z,99.90
2024-02-29T18:24:08.902Z,99.90
2024-02-29T18:26:35.654Z,99.90
2024-02-29T18:29:02.524Z,99.90
2024-02-29T18:31:29.339Z,99.90
2024-02-29T18:33:56.179Z,99.90
2024-02-29T18:36:24.421Z,99.90
2024-02-29T18:38:51.232Z,99.90
2024-02-29T18:41:18.039Z,99.90
2024-02-29T18:43:44.871Z,99.90
2024-02-29T18:46:11.806Z,99.90
2024-02-29T18:48:38.619Z,99.90
2024-02-29T18:51:05.867Z,99.90
2024-02-29T18:53:33.937Z,99.90
2024-02-29T18:56:00.742Z,99.90
2024-02-29T18:58:27.554Z,99.90
2024-02-29T19:00:54.398Z,99.90
2024-02-29T19:03:21.212Z,99.90
2024-02-29T19:05:47.946Z,99.90
2024-02-29T19:08:14.670Z,99.90
2024-02-29T19:10:42.944Z,99.90
2024-02-29T19:13:09.748Z,99.90
2024-02-29T19:15:36.496Z,99.90
2024-02-29T19:18:03.707Z,99.90
2024-02-29T19:20:30.530Z,99.90
2024-02-29T19:22:57.311Z,99.90
2024-02-29T19:25:24.252Z,99.90
2024-02-29T19:27:52.438Z,99.90
2024-02-29T19:30:21.634Z,99.90
2024-02-29T19:32:49.840Z,99.90
2024-02-29T19:35:19.185Z,99.90
2024-02-29T19:37:45.960Z,99.90
2024-02-29T19:40:13.220Z,99.90
2024-02-29T19:42:40.028Z,99.90
2024-02-29T19:45:09.516Z,99.90
2024-02-29T19:47:37.594Z,99.90
2024-02-29T19:50:05.411Z,99.90
2024-02-29T19:52:35.588Z,99.90
2024-02-29T19:55:03.172Z,99.90
2024-02-29T19:57:29.949Z,99.90
2024-02-29T19:59:56.709Z,99.90
2024-02-29T20:02:24.794Z,99.90
2024-02-29T20:04:51.533Z,99.90
2024-02-29T20:07:18.343Z,99.90
2024-02-29T20:09:48.022Z,99.90
2024-02-29T20:12:14.776Z,99.90
2024-02-29T20:14:41.544Z,99.90
2024-02-29T20:17:08.391Z,99.90
2024-02-29T20:19:38.647Z,99.90
2024-02-29T20:22:05.708Z,99.90
2024-02-29T20:24:32.752Z,99.90
2024-02-29T20:26:59.510Z,99.90
2024-02-29T20:29:26.241Z,99.90
2024-02-29T20:31:52.982Z,99.90
2024-02-29T20:34:19.798Z,99.90
2024-02-29T20:36:47.991Z,99.90
2024-02-29T20:39:14.822Z,99.90
2024-02-29T20:41:41.613Z,99.90
2024-02-29T20:44:08.869Z,99.90
2024-02-29T20:46:35.747Z,99.90
2024-02-29T20:49:02.605Z,99.90
2024-02-29T20:51:29.477Z,99.90
2024-02-29T20:53:57.675Z,99.90
2024-02-29T20:56:24.438Z,99.90
2024-02-29T20:58:51.219Z,99.90
2024-02-29T21:01:18.167Z,99.90
2024-02-29T21:03:45.038Z,99.90
2024-02-29T21:06:11.908Z,99.90
2024-02-29T21:08:38.790Z,99.90
2024-02-29T21:11:07.024Z,99.90
2024-02-29T21:13:33.853Z,99.90
2024-02-29T21:16:00.916Z,99.90
2024-02-29T21:18:27.783Z,99.90
2024-02-29T21:20:54.588Z,99.90
2024-02-29T21:23:21.558Z,99.90
2024-02-29T21:25:48.341Z,99.90
2024-02-29T21:28:16.684Z,99.90
2024-02-29T21:30:43.465Z,99.90
2024-02-29T21:33:10.327Z,99.90
2024-02-29T21:35:37.201Z,99.90
2024-02-29T21:38:04.279Z,99.90
2024-02-29T21:40:31.226Z,99.90
2024-02-29T21:42:58.222Z,99.90
2024-02-29T21:45:26.361Z,99.80
2024-02-29T21:47:53.235Z,98.80
2024-02-29T21:50:20.174Z,99.00
2024-02-29T21:52:46.948Z,98.70
2024-02-29T21:55:15.739Z,99.30
2024-02-29T21:57:42.565Z,98.90
2024-02-29T22:00:10.758Z,98.70
2024-02-29T22:02:39.026Z,98.30
2024-02-29T22:05:06.627Z,98.10
2024-02-29T22:07:33.427Z,97.60
2024-02-29T22:10:00.298Z,97.60
2024-02-29T22:12:27.091Z,97.40
2024-02-29T22:14:53.932Z,97.30
2024-02-29T22:17:20.694Z,97.80
2024-02-29T22:19:48.933Z,97.80
2024-02-29T22:22:15.768Z,98.30
2024-02-29T22:24:42.553Z,98.40
2024-02-29T22:27:09.302Z,97.90
2024-02-29T22:29:36.087Z,97.30
2024-02-29T22:32:02.876Z,96.20
2024-02-29T22:34:29.739Z,96.30
2024-02-29T22:36:57.964Z,96.90
2024-02-29T22:39:24.814Z,96.90
2024-02-29T22:41:56.921Z,96.90
2024-02-29T22:44:28.157Z,96.70
2024-02-29T22:46:54.902Z,96.40
2024-02-29T22:49:21.767Z,97.30
2024-02-29T22:51:48.631Z,97.10
2024-02-29T22:54:16.764Z,96.80
2024-02-29T22:56:43.493Z,96.70
2024-02-29T22:59:10.244Z,96.80
2024-02-29T23:01:37.082Z,96.70
2024-02-29T23:04:04.090Z,96.30
2024-02-29T23:06:30.830Z,96.70
2024-02-29T23:08:57.559Z,97.20
2024-02-29T23:11:25.692Z,97.50
2024-02-29T23:13:52.574Z,96.90
2024-02-29T23:16:19.372Z,97.10
2024-02-29T23:18:46.198Z,97.00
2024-02-29T23:21:13.737Z,97.80
2024-02-29T23:23:40.495Z,98.70
2024-02-29T23:26:07.254Z,98.40
2024-02-29T23:28:35.397Z,97.80
2024-02-29T23:31:02.276Z,96.80
2024-02-29T23:33:29.062Z,96.40
2024-02-29T23:35:55.800Z,96.80
2024-02-29T23:38:22.568Z,96.80
2024-02-29T23:40:49.301Z,97.30
2024-02-29T23:43:16.092Z,97.50
2024-02-29T23:45:44.288Z,97.10
2024-02-29T23:48:11.545Z,97.70
2024-02-29T23:50:38.277Z,98.20
2024-02-29T23:53:05.007Z,98.10
2024-02-29T23:55:32.159Z,97.20
2024-02-29T23:57:59.041Z,96.80
